sensor_id;sensor_type;location;lat;lon;timestamp;pressure;altitude;pressure_sealevel;temperature;humidity
60061;BME280;45933;51.336;12.612;2023-08-06T00:00:27;99048.47;;;19.46;59.48
60061;BME280;45933;51.336;12.612;2023-08-06T00:02:53;99051.19;;;19.44;59.40
60061;BME280;45933;51.336;12.612;2023-08-06T00:05:18;99046.00;;;19.43;59.39
60061;BME280;45933;51.336;12.612;2023-08-06T00:07:49;99041.66;;;19.42;59.63
60061;BME280;45933;51.336;12.612;2023-08-06T00:10:15;99033.81;;;19.40;59.72
60061;BME280;45933;51.336;12.612;2023-08-06T00:12:40;99033.06;;;19.38;59.71
60061;BME280;45933;51.336;12.612;2023-08-06T00:15:06;99034.75;;;19.39;59.59
60061;BME280;45933;51.336;12.612;2023-08-06T00:17:31;99032.22;;;19.38;59.39
60061;BME280;45933;51.336;12.612;2023-08-06T00:19:57;99025.13;;;19.38;59.49
60061;BME280;45933;51.336;12.612;2023-08-06T00:22:22;99023.44;;;19.37;59.59
60061;BME280;45933;51.336;12.612;2023-08-06T00:24:50;99026.25;;;19.34;59.68
60061;BME280;45933;51.336;12.612;2023-08-06T00:27:17;99017.47;;;19.33;59.73
60061;BME280;45933;51.336;12.612;2023-08-06T00:29:42;99015.78;;;19.32;59.79
60061;BME280;45933;51.336;12.612;2023-08-06T00:32:08;99022.94;;;19.30;59.80
60061;BME280;45933;51.336;12.612;2023-08-06T00:34:33;99021.22;;;19.29;59.80
60061;BME280;45933;51.336;12.612;2023-08-06T00:36:58;99018.69;;;19.28;59.90
60061;BME280;45933;51.336;12.612;2023-08-06T00:39:23;99017.06;;;19.25;60.02
60061;BME280;45933;51.336;12.612;2023-08-06T00:41:49;99011.84;;;19.24;60.26
60061;BME280;45933;51.336;12.612;2023-08-06T00:44:14;99022.53;;;19.22;60.17
60061;BME280;45933;51.336;12.612;2023-08-06T00:46:40;99017.34;;;19.21;60.33
60061;BME280;45933;51.336;12.612;2023-08-06T00:49:05;99014.75;;;19.19;60.25
60061;BME280;45933;51.336;12.612;2023-08-06T00:51:31;99006.84;;;19.19;60.46
60061;BME280;45933;51.336;12.612;2023-08-06T00:53:57;99004.28;;;19.18;60.57
60061;BME280;45933;51.336;12.612;2023-08-06T00:56:22;99011.38;;;19.17;60.67
60061;BME280;45933;51.336;12.612;2023-08-06T00:58:48;99004.19;;;19.19;60.77
60061;BME280;45933;51.336;12.612;2023-08-06T01:01:13;99004.28;;;19.18;60.55
60061;BME280;45933;51.336;12.612;2023-08-06T01:03:39;99005.06;;;19.20;60.56
60061;BME280;45933;51.336;12.612;2023-08-06T01:06:04;98999.84;;;19.18;60.67
60061;BME280;45933;51.336;12.612;2023-08-06T01:08:58;98989.34;;;19.32;59.96
60061;BME280;45933;51.336;12.612;2023-08-06T01:11:33;98991.50;;;19.26;60.44
60061;BME280;45933;51.336;12.612;2023-08-06T01:14:08;98988.94;;;19.24;60.47
60061;BME280;45933;51.336;12.612;2023-08-06T01:16:38;98992.78;;;19.19;60.71
60061;BME280;45933;51.336;12.612;2023-08-06T01:19:15;98989.03;;;19.23;60.40
60061;BME280;45933;51.336;12.612;2023-08-06T01:21:41;98989.38;;;19.17;60.67
60061;BME280;45933;51.336;12.612;2023-08-06T01:24:06;98990.25;;;19.17;60.75
60061;BME280;45933;51.336;12.612;2023-08-06T01:26:51;98984.44;;;19.26;60.27
60061;BME280;45933;51.336;12.612;2023-08-06T01:29:23;98980.72;;;19.15;60.77
60061;BME280;45933;51.336;12.612;2023-08-06T01:31:51;98987.84;;;19.13;61.15
60061;BME280;45933;51.336;12.612;2023-08-06T01:34:21;98978.13;;;19.13;61.35
60061;BME280;45933;51.336;12.612;2023-08-06T01:36:47;98978.34;;;19.10;61.32
60061;BME280;45933;51.336;12.612;2023-08-06T01:39:13;98967.78;;;19.10;61.23
60061;BME280;45933;51.336;12.612;2023-08-06T01:41:38;98961.66;;;19.10;61.46
60061;BME280;45933;51.336;12.612;2023-08-06T01:44:04;98959.91;;;19.08;61.27
60061;BME280;45933;51.336;12.612;2023-08-06T01:46:29;98969.56;;;19.10;61.35
60061;BME280;45933;51.336;12.612;2023-08-06T01:48:54;98962.56;;;19.08;61.31
60061;BME280;45933;51.336;12.612;2023-08-06T01:51:20;98962.50;;;19.10;61.41
60061;BME280;45933;51.336;12.612;2023-08-06T01:53:45;98966.06;;;19.09;61.26
60061;BME280;45933;51.336;12.612;2023-08-06T01:56:10;98964.44;;;19.06;61.75
60061;BME280;45933;51.336;12.612;2023-08-06T01:58:35;98967.00;;;19.08;61.57
60061;BME280;45933;51.336;12.612;2023-08-06T02:01:02;98960.97;;;19.06;61.57
60061;BME280;45933;51.336;12.612;2023-08-06T02:03:27;98955.69;;;19.06;61.49
60061;BME280;45933;51.336;12.612;2023-08-06T02:05:52;98955.69;;;19.06;61.52
60061;BME280;45933;51.336;12.612;2023-08-06T02:08:18;98960.13;;;19.05;61.69
60061;BME280;45933;51.336;12.612;2023-08-06T02:10:44;98944.44;;;19.02;61.80
60061;BME280;45933;51.336;12.612;2023-08-06T02:13:09;98944.44;;;19.02;61.78
60061;BME280;45933;51.336;12.612;2023-08-06T02:15:35;98936.50;;;19.02;61.76
60061;BME280;45933;51.336;12.612;2023-08-06T02:18:00;98934.81;;;19.01;61.79
60061;BME280;45933;51.336;12.612;2023-08-06T02:20:25;98931.41;;;18.99;61.93
60061;BME280;45933;51.336;12.612;2023-08-06T02:22:50;98927.09;;;18.98;61.83
60061;BME280;45933;51.336;12.612;2023-08-06T02:25:16;98918.22;;;18.99;62.09
60061;BME280;45933;51.336;12.612;2023-08-06T02:27:41;98916.59;;;18.97;62.05
60061;BME280;45933;51.336;12.612;2023-08-06T02:30:07;98915.84;;;18.95;62.03
60061;BME280;45933;51.336;12.612;2023-08-06T02:32:32;98914.06;;;18.95;62.13
60061;BME280;45933;51.336;12.612;2023-08-06T02:35:00;98905.38;;;18.93;62.27
60061;BME280;45933;51.336;12.612;2023-08-06T02:37:26;98911.56;;;18.92;62.08
60061;BME280;45933;51.336;12.612;2023-08-06T02:39:51;98909.88;;;18.91;62.34
60061;BME280;45933;51.336;12.612;2023-08-06T02:42:16;98902.06;;;18.90;62.36
60061;BME280;45933;51.336;12.612;2023-08-06T02:44:42;98901.97;;;18.91;62.24
60061;BME280;45933;51.336;12.612;2023-08-06T02:47:07;98899.41;;;18.90;62.35
60061;BME280;45933;51.336;12.612;2023-08-06T02:49:32;98894.03;;;18.91;62.25
60061;BME280;45933;51.336;12.612;2023-08-06T02:51:57;98891.50;;;18.90;62.46
60061;BME280;45933;51.336;12.612;2023-08-06T02:54:23;98888.84;;;18.90;62.34
60061;BME280;45933;51.336;12.612;2023-08-06T02:56:48;98890.56;;;18.91;62.51
60061;BME280;45933;51.336;12.612;2023-08-06T02:59:14;98878.28;;;18.90;62.50
60061;BME280;45933;51.336;12.612;2023-08-06T03:01:39;98884.41;;;18.90;62.68
60061;BME280;45933;51.336;12.612;2023-08-06T03:04:05;98884.41;;;18.90;62.41
60061;BME280;45933;51.336;12.612;2023-08-06T03:06:30;98876.59;;;18.89;62.67
60061;BME280;45933;51.336;12.612;2023-08-06T03:08:56;98876.59;;;18.89;62.51
60061;BME280;45933;51.336;12.612;2023-08-06T03:11:21;98869.53;;;18.89;62.49
60061;BME280;45933;51.336;12.612;2023-08-06T03:13:47;98877.53;;;18.88;62.61
60061;BME280;45933;51.336;12.612;2023-08-06T03:16:12;98874.97;;;18.86;62.41
60061;BME280;45933;51.336;12.612;2023-08-06T03:18:38;98865.25;;;18.87;62.60
60061;BME280;45933;51.336;12.612;2023-08-06T03:21:03;98869.69;;;18.86;62.47
60061;BME280;45933;51.336;12.612;2023-08-06T03:23:28;98869.78;;;18.85;62.48
60061;BME280;45933;51.336;12.612;2023-08-06T03:25:54;98861.88;;;18.85;62.46
60061;BME280;45933;51.336;12.612;2023-08-06T03:28:19;98855.84;;;18.83;62.76
60061;BME280;45933;51.336;12.612;2023-08-06T03:30:44;98855.84;;;18.83;62.44
60061;BME280;45933;51.336;12.612;2023-08-06T03:33:10;98854.97;;;18.82;62.59
60061;BME280;45933;51.336;12.612;2023-08-06T03:35:35;98849.03;;;18.78;62.73
60061;BME280;45933;51.336;12.612;2023-08-06T03:38:00;98847.34;;;18.77;62.87
60061;BME280;45933;51.336;12.612;2023-08-06T03:40:25;98848.34;;;18.75;62.93
60061;BME280;45933;51.336;12.612;2023-08-06T03:42:51;98846.66;;;18.74;62.83
60061;BME280;45933;51.336;12.612;2023-08-06T03:45:16;98856.53;;;18.70;62.87
60061;BME280;45933;51.336;12.612;2023-08-06T03:47:41;98845.22;;;18.68;62.92
60061;BME280;45933;51.336;12.612;2023-08-06T03:50:07;98842.72;;;18.65;63.10
60061;BME280;45933;51.336;12.612;2023-08-06T03:52:32;98849.06;;;18.63;63.35
60061;BME280;45933;51.336;12.612;2023-08-06T03:54:58;98853.47;;;18.62;63.16
60061;BME280;45933;51.336;12.612;2023-08-06T03:57:23;98846.56;;;18.60;63.22
60061;BME280;45933;51.336;12.612;2023-08-06T03:59:48;98837.06;;;18.57;63.45
60061;BME280;45933;51.336;12.612;2023-08-06T04:02:13;98838.91;;;18.55;63.34
60061;BME280;45933;51.336;12.612;2023-08-06T04:04:39;98839.88;;;18.54;63.51
60061;BME280;45933;51.336;12.612;2023-08-06T04:07:04;98841.81;;;18.50;63.50
60061;BME280;45933;51.336;12.612;2023-08-06T04:09:30;98835.03;;;18.46;63.67
60061;BME280;45933;51.336;12.612;2023-08-06T04:11:55;98828.97;;;18.44;63.90
60061;BME280;45933;51.336;12.612;2023-08-06T04:14:21;98829.94;;;18.43;63.83
60061;BME280;45933;51.336;12.612;2023-08-06T04:16:46;98833.69;;;18.39;64.21
60061;BME280;45933;51.336;12.612;2023-08-06T04:19:11;98829.34;;;18.38;64.18
60061;BME280;45933;51.336;12.612;2023-08-06T04:21:37;98836.31;;;18.39;64.08
60061;BME280;45933;51.336;12.612;2023-08-06T04:24:02;98825.75;;;18.39;64.18
60061;BME280;45933;51.336;12.612;2023-08-06T04:26:28;98831.03;;;18.39;64.37
60061;BME280;45933;51.336;12.612;2023-08-06T04:28:53;98827.50;;;18.40;64.12
60061;BME280;45933;51.336;12.612;2023-08-06T04:31:18;98825.75;;;18.39;64.27
60061;BME280;45933;51.336;12.612;2023-08-06T04:33:44;98823.91;;;18.41;64.24
60061;BME280;45933;51.336;12.612;2023-08-06T04:36:09;98830.97;;;18.41;64.28
60061;BME280;45933;51.336;12.612;2023-08-06T04:38:34;98834.34;;;18.43;64.49
60061;BME280;45933;51.336;12.612;2023-08-06T04:41:02;98822.13;;;18.42;64.38
60061;BME280;45933;51.336;12.612;2023-08-06T04:43:27;98827.38;;;18.42;64.37
60061;BME280;45933;51.336;12.612;2023-08-06T04:45:54;98828.34;;;18.41;64.40
60061;BME280;45933;51.336;12.612;2023-08-06T04:48:19;98821.25;;;18.41;64.51
60061;BME280;45933;51.336;12.612;2023-08-06T04:50:49;98831.03;;;18.39;64.54
60061;BME280;45933;51.336;12.612;2023-08-06T04:53:16;98830.97;;;18.41;64.63
60061;BME280;45933;51.336;12.612;2023-08-06T04:55:41;98818.69;;;18.40;64.56
60061;BME280;45933;51.336;12.612;2023-08-06T04:58:09;98826.59;;;18.40;64.56
60061;BME280;45933;51.336;12.612;2023-08-06T05:00:35;98817.94;;;18.38;64.78
60061;BME280;45933;51.336;12.612;2023-08-06T05:03:00;98823.22;;;18.38;64.77
60061;BME280;45933;51.336;12.612;2023-08-06T05:05:26;98822.47;;;18.36;64.75
60061;BME280;45933;51.336;12.612;2023-08-06T05:07:54;98820.69;;;18.36;64.87
60061;BME280;45933;51.336;12.612;2023-08-06T05:10:19;98820.75;;;18.35;64.84
60061;BME280;45933;51.336;12.612;2023-08-06T05:12:45;98826.03;;;18.35;65.10
60061;BME280;45933;51.336;12.612;2023-08-06T05:15:10;98816.41;;;18.34;64.86
60061;BME280;45933;51.336;12.612;2023-08-06T05:17:35;98813.03;;;18.32;65.00
60061;BME280;45933;51.336;12.612;2023-08-06T05:20:01;98816.59;;;18.31;64.84
60061;BME280;45933;51.336;12.612;2023-08-06T05:22:26;98811.50;;;18.27;64.41
60061;BME280;45933;51.336;12.612;2023-08-06T05:24:51;98816.66;;;18.29;64.71
60061;BME280;45933;51.336;12.612;2023-08-06T05:27:17;98812.34;;;18.28;64.64
60061;BME280;45933;51.336;12.612;2023-08-06T05:29:44;98813.19;;;18.28;64.08
60061;BME280;45933;51.336;12.612;2023-08-06T05:32:09;98810.66;;;18.27;64.36
60061;BME280;45933;51.336;12.612;2023-08-06T05:34:35;98805.38;;;18.27;64.28
60061;BME280;45933;51.336;12.612;2023-08-06T05:37:00;98808.69;;;18.31;64.39
60061;BME280;45933;51.336;12.612;2023-08-06T05:39:25;98796.34;;;18.31;64.34
60061;BME280;45933;51.336;12.612;2023-08-06T05:41:51;98798.88;;;18.33;64.20
60061;BME280;45933;51.336;12.612;2023-08-06T05:44:17;98800.69;;;18.32;64.38
60061;BME280;45933;51.336;12.612;2023-08-06T05:46:42;98783.91;;;18.33;64.16
60061;BME280;45933;51.336;12.612;2023-08-06T05:49:08;98802.38;;;18.33;63.99
60061;BME280;45933;51.336;12.612;2023-08-06T05:51:33;98797.00;;;18.35;64.35
60061;BME280;45933;51.336;12.612;2023-08-06T05:53:58;98796.16;;;18.34;64.16
60061;BME280;45933;51.336;12.612;2023-08-06T05:56:23;98804.06;;;18.34;64.29
60061;BME280;45933;51.336;12.612;2023-08-06T05:58:49;98801.44;;;18.34;64.39
60061;BME280;45933;51.336;12.612;2023-08-06T06:01:16;98802.28;;;18.35;64.32
60061;BME280;45933;51.336;12.612;2023-08-06T06:03:41;98803.16;;;18.35;64.58
60061;BME280;45933;51.336;12.612;2023-08-06T06:06:07;98801.44;;;18.34;64.27
60061;BME280;45933;51.336;12.612;2023-08-06T06:08:32;98801.53;;;18.33;64.30
60061;BME280;45933;51.336;12.612;2023-08-06T06:10:59;98801.53;;;18.33;64.44
60061;BME280;45933;51.336;12.612;2023-08-06T06:13:24;98798.78;;;18.34;64.81
60061;BME280;45933;51.336;12.612;2023-08-06T06:15:49;98808.50;;;18.34;64.48
60061;BME280;45933;51.336;12.612;2023-08-06T06:18:15;98790.81;;;18.36;64.49
60061;BME280;45933;51.336;12.612;2023-08-06T06:20:40;98786.66;;;18.32;64.61
60061;BME280;45933;51.336;12.612;2023-08-06T06:23:05;98796.16;;;18.34;64.49
60061;BME280;45933;51.336;12.612;2023-08-06T06:25:30;98789.03;;;18.36;64.43
60061;BME280;45933;51.336;12.612;2023-08-06T06:27:56;98791.56;;;18.38;64.74
60061;BME280;45933;51.336;12.612;2023-08-06T06:30:21;98788.91;;;18.38;64.41
60061;BME280;45933;51.336;12.612;2023-08-06T06:32:47;98787.81;;;18.42;64.39
60061;BME280;45933;51.336;12.612;2023-08-06T06:35:12;98786.72;;;18.46;64.47
60061;BME280;45933;51.336;12.612;2023-08-06T06:37:37;98787.19;;;18.52;64.35
60061;BME280;45933;51.336;12.612;2023-08-06T06:40:03;98779.28;;;18.52;64.18
60061;BME280;45933;51.336;12.612;2023-08-06T06:42:29;98782.59;;;18.56;64.20
60061;BME280;45933;51.336;12.612;2023-08-06T06:44:54;98787.56;;;18.61;64.07
60061;BME280;45933;51.336;12.612;2023-08-06T06:47:19;98778.44;;;18.66;63.74
60061;BME280;45933;51.336;12.612;2023-08-06T06:49:45;98780.16;;;18.67;63.38
60061;BME280;45933;51.336;12.612;2023-08-06T06:52:10;98782.63;;;18.70;63.13
60061;BME280;45933;51.336;12.612;2023-08-06T06:54:36;98784.31;;;18.71;62.98
60061;BME280;45933;51.336;12.612;2023-08-06T06:57:01;98779.72;;;18.75;62.98
60061;BME280;45933;51.336;12.612;2023-08-06T06:59:27;98777.84;;;18.77;62.81
60061;BME280;45933;51.336;12.612;2023-08-06T07:01:52;98779.34;;;18.81;62.89
60061;BME280;45933;51.336;12.612;2023-08-06T07:04:17;98779.94;;;18.86;62.77
60061;BME280;45933;51.336;12.612;2023-08-06T07:06:43;98776.34;;;18.87;62.09
60061;BME280;45933;51.336;12.612;2023-08-06T07:09:08;98778.81;;;18.90;61.97
60061;BME280;45933;51.336;12.612;2023-08-06T07:11:33;98767.41;;;18.90;61.68
60061;BME280;45933;51.336;12.612;2023-08-06T07:13:59;98768.81;;;18.95;61.81
60061;BME280;45933;51.336;12.612;2023-08-06T07:16:25;98779.22;;;18.98;62.11
60061;BME280;45933;51.336;12.612;2023-08-06T07:18:51;98773.06;;;18.98;61.96
60061;BME280;45933;51.336;12.612;2023-08-06T07:21:17;98778.16;;;19.01;61.70
60061;BME280;45933;51.336;12.612;2023-08-06T07:23:43;98779.84;;;19.02;61.46
60061;BME280;45933;51.336;12.612;2023-08-06T07:26:08;98781.25;;;19.07;61.58
60061;BME280;45933;51.336;12.612;2023-08-06T07:28:34;98783.84;;;19.09;61.31
60061;BME280;45933;51.336;12.612;2023-08-06T07:30:59;98776.75;;;19.10;61.29
60061;BME280;45933;51.336;12.612;2023-08-06T07:33:25;98776.66;;;19.11;61.91
60061;BME280;45933;51.336;12.612;2023-08-06T07:35:50;98782.63;;;19.15;61.69
60061;BME280;45933;51.336;12.612;2023-08-06T07:38:15;98779.97;;;19.15;61.56
60061;BME280;45933;51.336;12.612;2023-08-06T07:40:40;98791.28;;;19.17;61.34
60061;BME280;45933;51.336;12.612;2023-08-06T07:43:06;98793.06;;;19.16;61.72
60061;BME280;45933;51.336;12.612;2023-08-06T07:45:35;98789.22;;;19.22;62.01
60061;BME280;45933;51.336;12.612;2023-08-06T07:48:04;98791.09;;;19.20;62.02
60061;BME280;45933;51.336;12.612;2023-08-06T07:50:29;98785.63;;;19.23;62.05
60061;BME280;45933;51.336;12.612;2023-08-06T07:52:55;98785.44;;;19.26;61.90
60061;BME280;45933;51.336;12.612;2023-08-06T07:55:20;98790.50;;;19.29;61.75
60061;BME280;45933;51.336;12.612;2023-08-06T07:57:45;98789.28;;;19.34;61.93
60061;BME280;45933;51.336;12.612;2023-08-06T08:00:11;98792.03;;;19.33;61.23
60061;BME280;45933;51.336;12.612;2023-08-06T08:02:36;98794.41;;;19.38;61.01
60061;BME280;45933;51.336;12.612;2023-08-06T08:05:01;98790.53;;;19.43;60.55
60061;BME280;45933;51.336;12.612;2023-08-06T08:07:27;98793.81;;;19.47;60.31
60061;BME280;45933;51.336;12.612;2023-08-06T08:09:55;98790.03;;;19.51;59.62
60061;BME280;45933;51.336;12.612;2023-08-06T08:12:20;98778.44;;;19.53;59.57
60061;BME280;45933;51.336;12.612;2023-08-06T08:14:45;98785.03;;;19.61;60.06
60061;BME280;45933;51.336;12.612;2023-08-06T08:17:11;98776.66;;;19.68;59.46
60061;BME280;45933;51.336;12.612;2023-08-06T08:19:37;98787.84;;;19.72;59.13
60061;BME280;45933;51.336;12.612;2023-08-06T08:22:02;98774.91;;;19.81;59.01
60061;BME280;45933;51.336;12.612;2023-08-06T08:24:28;98777.47;;;19.83;58.04
60061;BME280;45933;51.336;12.612;2023-08-06T08:26:56;98772.41;;;19.93;58.71
60061;BME280;45933;51.336;12.612;2023-08-06T08:29:22;98771.28;;;19.97;58.40
60061;BME280;45933;51.336;12.612;2023-08-06T08:31:47;98768.22;;;20.03;58.39
60061;BME280;45933;51.336;12.612;2023-08-06T08:34:17;98766.97;;;20.08;58.69
60061;BME280;45933;51.336;12.612;2023-08-06T08:36:42;98763.97;;;20.15;58.31
60061;BME280;45933;51.336;12.612;2023-08-06T08:39:12;98754.94;;;20.17;57.97
60061;BME280;45933;51.336;12.612;2023-08-06T08:41:39;98749.47;;;20.20;57.85
60061;BME280;45933;51.336;12.612;2023-08-06T08:44:07;98753.09;;;20.32;57.82
60061;BME280;45933;51.336;12.612;2023-08-06T08:46:36;98752.97;;;20.33;57.00
60061;BME280;45933;51.336;12.612;2023-08-06T08:49:03;98740.28;;;20.38;57.20
60061;BME280;45933;51.336;12.612;2023-08-06T08:51:29;98741.53;;;20.47;57.23
60061;BME280;45933;51.336;12.612;2023-08-06T08:53:55;98739.41;;;20.52;57.14
60061;BME280;45933;51.336;12.612;2023-08-06T08:56:24;98741.63;;;20.58;56.62
60061;BME280;45933;51.336;12.612;2023-08-06T08:58:50;98742.81;;;20.67;57.04
60061;BME280;45933;51.336;12.612;2023-08-06T09:01:18;98739.94;;;20.70;56.18
60061;BME280;45933;51.336;12.612;2023-08-06T09:03:46;98738.47;;;20.79;55.89
60061;BME280;45933;51.336;12.612;2023-08-06T09:06:12;98734.44;;;20.86;56.28
60061;BME280;45933;51.336;12.612;2023-08-06T09:08:47;98737.09;;;20.99;56.19
60061;BME280;45933;51.336;12.612;2023-08-06T09:11:15;98734.88;;;21.05;56.10
60061;BME280;45933;51.336;12.612;2023-08-06T09:13:41;98730.81;;;21.12;56.24
60061;BME280;45933;51.336;12.612;2023-08-06T09:16:06;98735.25;;;21.25;55.91
60061;BME280;45933;51.336;12.612;2023-08-06T09:18:31;98725.22;;;21.30;54.26
60061;BME280;45933;51.336;12.612;2023-08-06T09:20:57;98715.88;;;21.37;54.15
60061;BME280;45933;51.336;12.612;2023-08-06T09:23:32;98719.97;;;21.54;54.97
60061;BME280;45933;51.336;12.612;2023-08-06T09:25:58;98717.94;;;21.57;53.91
60061;BME280;45933;51.336;12.612;2023-08-06T09:28:24;98714.59;;;21.66;53.71
60061;BME280;45933;51.336;12.612;2023-08-06T09:30:50;98718.19;;;21.78;53.47
60061;BME280;45933;51.336;12.612;2023-08-06T09:33:18;98716.31;;;21.91;53.80
60061;BME280;45933;51.336;12.612;2023-08-06T09:35:47;98715.78;;;21.99;52.08
60061;BME280;45933;51.336;12.612;2023-08-06T09:38:13;98709.03;;;22.06;52.97
60061;BME280;45933;51.336;12.612;2023-08-06T09:40:39;98712.13;;;22.24;53.02
60061;BME280;45933;51.336;12.612;2023-08-06T09:43:04;98708.94;;;22.32;51.84
60061;BME280;45933;51.336;12.612;2023-08-06T09:45:34;98708.59;;;22.48;51.82
60061;BME280;45933;51.336;12.612;2023-08-06T09:48:03;98701.88;;;22.66;52.31
60061;BME280;45933;51.336;12.612;2023-08-06T09:50:30;98707.19;;;22.77;50.95
60061;BME280;45933;51.336;12.612;2023-08-06T09:52:57;98707.72;;;22.93;50.88
60061;BME280;45933;51.336;12.612;2023-08-06T09:55:22;98713.78;;;23.07;50.29
60061;BME280;45933;51.336;12.612;2023-08-06T09:57:49;98708.34;;;23.19;49.50
60061;BME280;45933;51.336;12.612;2023-08-06T10:00:15;98703.41;;;23.26;49.44
60061;BME280;45933;51.336;12.612;2023-08-06T10:02:41;98698.53;;;23.42;49.37
60061;BME280;45933;51.336;12.612;2023-08-06T10:05:08;98687.13;;;23.52;49.64
60061;BME280;45933;51.336;12.612;2023-08-06T10:07:34;98685.56;;;23.60;48.41
60061;BME280;45933;51.336;12.612;2023-08-06T10:10:00;98687.75;;;23.66;48.11
60061;BME280;45933;51.336;12.612;2023-08-06T10:12:28;98680.59;;;23.78;47.68
60061;BME280;45933;51.336;12.612;2023-08-06T10:14:57;98673.56;;;23.77;46.87
60061;BME280;45933;51.336;12.612;2023-08-06T10:17:24;98668.97;;;23.79;46.93
60061;BME280;45933;51.336;12.612;2023-08-06T10:19:51;98668.59;;;23.84;46.71
60061;BME280;45933;51.336;12.612;2023-08-06T10:22:19;98665.69;;;23.87;46.88
60061;BME280;45933;51.336;12.612;2023-08-06T10:30:22;98654.34;;;24.06;47.86
60061;BME280;45933;51.336;12.612;2023-08-06T10:32:49;98655.13;;;23.96;45.86
60061;BME280;45933;51.336;12.612;2023-08-06T10:35:46;98661.81;;;24.12;46.52
60061;BME280;45933;51.336;12.612;2023-08-06T10:38:25;98652.84;;;24.13;46.30
60061;BME280;45933;51.336;12.612;2023-08-06T10:43:31;98641.81;;;24.17;46.38
60061;BME280;45933;51.336;12.612;2023-08-06T10:45:59;98631.31;;;24.16;45.52
60061;BME280;45933;51.336;12.612;2023-08-06T10:50:59;98624.81;;;24.30;45.63
60061;BME280;45933;51.336;12.612;2023-08-06T10:53:25;98621.75;;;24.34;45.59
60061;BME280;45933;51.336;12.612;2023-08-06T10:55:50;98620.22;;;24.52;45.50
60061;BME280;45933;51.336;12.612;2023-08-06T10:58:16;98618.47;;;24.63;45.15
60061;BME280;45933;51.336;12.612;2023-08-06T11:00:44;98611.06;;;24.76;44.85
60061;BME280;45933;51.336;12.612;2023-08-06T11:03:09;98609.31;;;24.96;44.69
60061;BME280;45933;51.336;12.612;2023-08-06T11:05:35;98596.50;;;25.11;43.79
60061;BME280;45933;51.336;12.612;2023-08-06T11:08:01;98599.16;;;25.20;44.44
60061;BME280;45933;51.336;12.612;2023-08-06T11:10:26;98594.28;;;25.35;42.47
60061;BME280;45933;51.336;12.612;2023-08-06T11:12:51;98596.97;;;25.45;41.90
60061;BME280;45933;51.336;12.612;2023-08-06T11:15:17;98592.34;;;25.56;42.43
60061;BME280;45933;51.336;12.612;2023-08-06T11:17:42;98586.47;;;25.63;41.67
60061;BME280;45933;51.336;12.612;2023-08-06T11:20:08;98597.94;;;25.73;41.66
60061;BME280;45933;51.336;12.612;2023-08-06T11:22:33;98583.66;;;25.74;41.34
60061;BME280;45933;51.336;12.612;2023-08-06T11:25:05;98583.38;;;25.87;41.35
60061;BME280;45933;51.336;12.612;2023-08-06T11:27:30;98577.47;;;25.83;40.17
60061;BME280;45933;51.336;12.612;2023-08-06T11:29:55;98577.63;;;25.91;40.60
60061;BME280;45933;51.336;12.612;2023-08-06T11:32:21;98570.59;;;26.00;40.07
60061;BME280;45933;51.336;12.612;2023-08-06T11:34:46;98571.00;;;26.05;39.87
60061;BME280;45933;51.336;12.612;2023-08-06T11:37:11;98572.38;;;26.09;39.89
60061;BME280;45933;51.336;12.612;2023-08-06T11:39:38;98570.69;;;26.18;39.06
60061;BME280;45933;51.336;12.612;2023-08-06T11:42:04;98565.50;;;26.16;38.55
60061;BME280;45933;51.336;12.612;2023-08-06T11:44:40;98566.47;;;26.15;36.98
60061;BME280;45933;51.336;12.612;2023-08-06T11:47:13;98570.53;;;26.19;37.95
60061;BME280;45933;51.336;12.612;2023-08-06T11:49:39;98562.94;;;26.24;38.07
60061;BME280;45933;51.336;12.612;2023-08-06T11:54:39;98560.53;;;26.31;38.46
60061;BME280;45933;51.336;12.612;2023-08-06T11:57:08;98554.63;;;26.37;38.76
60061;BME280;45933;51.336;12.612;2023-08-06T11:59:33;98557.97;;;26.39;38.51
60061;BME280;45933;51.336;12.612;2023-08-06T12:02:03;98556.16;;;26.40;37.65
60061;BME280;45933;51.336;12.612;2023-08-06T12:04:31;98555.16;;;26.41;37.90
60061;BME280;45933;51.336;12.612;2023-08-06T12:07:04;98546.31;;;26.50;38.84
60061;BME280;45933;51.336;12.612;2023-08-06T12:09:30;98552.88;;;26.55;38.42
60061;BME280;45933;51.336;12.612;2023-08-06T12:11:56;98550.47;;;26.62;37.69
60061;BME280;45933;51.336;12.612;2023-08-06T12:14:21;98538.09;;;26.61;36.71
60061;BME280;45933;51.336;12.612;2023-08-06T12:16:46;98542.25;;;26.73;38.14
60061;BME280;45933;51.336;12.612;2023-08-06T12:19:12;98548.69;;;26.80;38.06
60061;BME280;45933;51.336;12.612;2023-08-06T12:21:37;98549.78;;;26.88;37.15
60061;BME280;45933;51.336;12.612;2023-08-06T12:24:02;98537.97;;;26.90;35.66
60061;BME280;45933;51.336;12.612;2023-08-06T12:26:28;98534.72;;;26.87;36.79
60061;BME280;45933;51.336;12.612;2023-08-06T12:28:53;98539.09;;;26.88;35.93
60061;BME280;45933;51.336;12.612;2023-08-06T12:31:20;98537.41;;;26.87;37.20
60061;BME280;45933;51.336;12.612;2023-08-06T12:33:45;98538.41;;;26.85;37.22
60061;BME280;45933;51.336;12.612;2023-08-06T12:36:10;98531.81;;;26.80;36.73
60061;BME280;45933;51.336;12.612;2023-08-06T12:38:36;98539.25;;;26.86;35.97
60061;BME280;45933;51.336;12.612;2023-08-06T12:41:01;98530.47;;;26.94;36.38
60061;BME280;45933;51.336;12.612;2023-08-06T12:43:27;98517.63;;;26.97;36.01
60061;BME280;45933;51.336;12.612;2023-08-06T12:45:52;98523.22;;;27.04;36.42
60061;BME280;45933;51.336;12.612;2023-08-06T12:48:18;98523.19;;;27.14;36.25
60061;BME280;45933;51.336;12.612;2023-08-06T12:50:44;98522.44;;;27.21;36.75
60061;BME280;45933;51.336;12.612;2023-08-06T12:53:09;98522.69;;;27.28;34.49
60061;BME280;45933;51.336;12.612;2023-08-06T12:55:35;98525.75;;;27.33;33.94
60061;BME280;45933;51.336;12.612;2023-08-06T12:58:00;98527.97;;;27.38;33.63